sensor_id;sensor_type;location;lat;lon;timestamp;P1;durP1;ratioP1;P2;durP2;ratioP2
30287;SDS011;17103;48.316;11.558;2023-05-19T00:01:39;2.92;;;1.70;;
30287;SDS011;17103;48.316;11.558;2023-05-19T00:04:08;4.32;;;1.63;;
30287;SDS011;17103;48.316;11.558;2023-05-19T00:06:36;1.80;;;1.30;;
30287;SDS011;17103;48.316;11.558;2023-05-19T00:09:04;4.78;;;1.58;;
30287;SDS011;17103;48.316;11.558;2023-05-19T00:11:31;4.10;;;1.58;;
30287;SDS011;17103;48.316;11.558;2023-05-19T00:14:00;2.78;;;1.48;;
30287;SDS011;17103;48.316;11.558;2023-05-19T00:16:27;3.95;;;1.38;;
30287;SDS011;17103;48.316;11.558;2023-05-19T00:18:53;3.63;;;1.60;;
30287;SDS011;17103;48.316;11.558;2023-05-19T00:21:21;1.38;;;0.95;;
30287;SDS011;17103;48.316;11.558;2023-05-19T00:23:46;4.55;;;1.67;;
30287;SDS011;17103;48.316;11.558;2023-05-19T00:26:14;4.55;;;1.30;;
30287;SDS011;17103;48.316;11.558;2023-05-19T00:28:41;3.25;;;1.23;;
30287;SDS011;17103;48.316;11.558;2023-05-19T00:31:06;3.63;;;1.58;;
30287;SDS011;17103;48.316;11.558;2023-05-19T00:33:33;4.57;;;1.70;;
30287;SDS011;17103;48.316;11.558;2023-05-19T00:36:00;3.58;;;1.42;;
30287;SDS011;17103;48.316;11.558;2023-05-19T00:38:27;2.90;;;1.58;;
30287;SDS011;17103;48.316;11.558;2023-05-19T00:40:58;3.97;;;1.30;;
30287;SDS011;17103;48.316;11.558;2023-05-19T00:43:24;3.83;;;1.88;;
30287;SDS011;17103;48.316;11.558;2023-05-19T00:45:50;3.83;;;1.35;;
30287;SDS011;17103;48.316;11.558;2023-05-19T00:48:16;5.03;;;1.85;;
30287;SDS011;17103;48.316;11.558;2023-05-19T00:50:45;3.42;;;2.10;;
30287;SDS011;17103;48.316;11.558;2023-05-19T00:53:13;2.92;;;1.35;;
30287;SDS011;17103;48.316;11.558;2023-05-19T00:55:41;2.05;;;1.50;;
30287;SDS011;17103;48.316;11.558;2023-05-19T00:58:08;2.60;;;1.30;;
30287;SDS011;17103;48.316;11.558;2023-05-19T01:00:35;4.63;;;1.67;;
30287;SDS011;17103;48.316;11.558;2023-05-19T01:03:03;4.18;;;1.20;;
30287;SDS011;17103;48.316;11.558;2023-05-19T01:05:36;4.28;;;1.45;;
30287;SDS011;17103;48.316;11.558;2023-05-19T01:08:17;3.78;;;1.70;;
30287;SDS011;17103;48.316;11.558;2023-05-19T01:10:43;4.03;;;1.50;;
30287;SDS011;17103;48.316;11.558;2023-05-19T01:13:09;6.25;;;1.63;;
30287;SDS011;17103;48.316;11.558;2023-05-19T01:15:39;4.97;;;1.67;;
30287;SDS011;17103;48.316;11.558;2023-05-19T01:24:44;4.80;;;1.85;;
30287;SDS011;17103;48.316;11.558;2023-05-19T01:27:12;5.55;;;2.10;;
30287;SDS011;17103;48.316;11.558;2023-05-19T01:32:53;8.10;;;1.98;;
30287;SDS011;17103;48.316;11.558;2023-05-19T01:35:22;2.92;;;1.40;;
30287;SDS011;17103;48.316;11.558;2023-05-19T01:37:54;5.20;;;1.52;;
30287;SDS011;17103;48.316;11.558;2023-05-19T01:40:23;7.32;;;2.67;;
30287;SDS011;17103;48.316;11.558;2023-05-19T01:42:54;4.05;;;1.92;;
30287;SDS011;17103;48.316;11.558;2023-05-19T01:45:21;4.85;;;1.58;;
30287;SDS011;17103;48.316;11.558;2023-05-19T01:47:54;3.85;;;1.55;;
30287;SDS011;17103;48.316;11.558;2023-05-19T01:50:21;4.05;;;1.73;;
30287;SDS011;17103;48.316;11.558;2023-05-19T01:52:46;4.20;;;1.70;;
30287;SDS011;17103;48.316;11.558;2023-05-19T01:55:12;4.07;;;1.60;;
30287;SDS011;17103;48.316;11.558;2023-05-19T02:02:49;4.70;;;1.40;;
30287;SDS011;17103;48.316;11.558;2023-05-19T02:05:44;4.22;;;1.63;;
30287;SDS011;17103;48.316;11.558;2023-05-19T02:11:06;3.75;;;1.60;;
30287;SDS011;17103;48.316;11.558;2023-05-19T02:13:52;6.82;;;1.60;;
30287;SDS011;17103;48.316;11.558;2023-05-19T02:16:23;5.75;;;2.33;;
30287;SDS011;17103;48.316;11.558;2023-05-19T02:18:52;6.22;;;1.50;;
30287;SDS011;17103;48.316;11.558;2023-05-19T02:21:20;4.72;;;1.45;;
30287;SDS011;17103;48.316;11.558;2023-05-19T02:23:46;4.55;;;1.80;;
30287;SDS011;17103;48.316;11.558;2023-05-19T02:26:12;3.72;;;1.50;;
30287;SDS011;17103;48.316;11.558;2023-05-19T02:28:38;2.88;;;1.10;;
30287;SDS011;17103;48.316;11.558;2023-05-19T02:31:04;2.38;;;1.40;;
30287;SDS011;17103;48.316;11.558;2023-05-19T02:33:33;7.28;;;2.03;;
30287;SDS011;17103;48.316;11.558;2023-05-19T02:36:00;4.13;;;1.60;;
30287;SDS011;17103;48.316;11.558;2023-05-19T02:38:26;5.03;;;2.08;;
30287;SDS011;17103;48.316;11.558;2023-05-19T02:40:51;2.88;;;1.20;;
30287;SDS011;17103;48.316;11.558;2023-05-19T02:43:17;5.60;;;1.67;;
30287;SDS011;17103;48.316;11.558;2023-05-19T02:45:43;4.22;;;1.77;;
30287;SDS011;17103;48.316;11.558;2023-05-19T02:48:09;3.45;;;1.60;;
30287;SDS011;17103;48.316;11.558;2023-05-19T02:50:35;4.57;;;2.03;;
30287;SDS011;17103;48.316;11.558;2023-05-19T02:53:01;4.60;;;2.38;;
30287;SDS011;17103;48.316;11.558;2023-05-19T02:55:26;4.72;;;1.33;;
30287;SDS011;17103;48.316;11.558;2023-05-19T02:57:52;6.43;;;1.75;;
30287;SDS011;17103;48.316;11.558;2023-05-19T03:00:18;5.22;;;1.70;;
30287;SDS011;17103;48.316;11.558;2023-05-19T03:02:44;2.80;;;1.48;;
30287;SDS011;17103;48.316;11.558;2023-05-19T03:05:10;5.22;;;1.45;;
30287;SDS011;17103;48.316;11.558;2023-05-19T03:07:38;3.55;;;1.95;;
30287;SDS011;17103;48.316;11.558;2023-05-19T03:10:04;5.65;;;1.67;;
30287;SDS011;17103;48.316;11.558;2023-05-19T03:12:32;4.60;;;1.80;;
30287;SDS011;17103;48.316;11.558;2023-05-19T03:14:59;6.63;;;1.88;;
30287;SDS011;17103;48.316;11.558;2023-05-19T03:17:25;3.22;;;1.58;;
30287;SDS011;17103;48.316;11.558;2023-05-19T03:19:52;2.95;;;1.70;;
30287;SDS011;17103;48.316;11.558;2023-05-19T03:22:18;5.78;;;2.10;;
30287;SDS011;17103;48.316;11.558;2023-05-19T03:24:45;5.57;;;1.95;;
30287;SDS011;17103;48.316;11.558;2023-05-19T03:27:11;3.95;;;1.65;;
30287;SDS011;17103;48.316;11.558;2023-05-19T03:29:37;4.07;;;1.60;;
30287;SDS011;17103;48.316;11.558;2023-05-19T03:32:02;5.40;;;2.20;;
30287;SDS011;17103;48.316;11.558;2023-05-19T03:34:29;5.85;;;1.92;;
30287;SDS011;17103;48.316;11.558;2023-05-19T03:36:56;5.32;;;1.65;;
30287;SDS011;17103;48.316;11.558;2023-05-19T03:39:22;5.65;;;1.77;;
30287;SDS011;17103;48.316;11.558;2023-05-19T03:41:47;5.22;;;1.65;;
30287;SDS011;17103;48.316;11.558;2023-05-19T03:44:13;4.72;;;1.95;;
30287;SDS011;17103;48.316;11.558;2023-05-19T03:46:39;3.55;;;2.08;;
30287;SDS011;17103;48.316;11.558;2023-05-19T03:49:05;4.13;;;1.60;;
30287;SDS011;17103;48.316;11.558;2023-05-19T03:51:31;5.43;;;2.00;;
30287;SDS011;17103;48.316;11.558;2023-05-19T03:53:58;7.38;;;2.13;;
30287;SDS011;17103;48.316;11.558;2023-05-19T03:56:24;5.10;;;2.03;;
30287;SDS011;17103;48.316;11.558;2023-05-19T03:58:51;3.72;;;1.60;;
30287;SDS011;17103;48.316;11.558;2023-05-19T04:01:19;3.67;;;1.70;;
30287;SDS011;17103;48.316;11.558;2023-05-19T04:03:46;5.00;;;1.75;;
30287;SDS011;17103;48.316;11.558;2023-05-19T04:06:12;4.47;;;1.48;;
30287;SDS011;17103;48.316;11.558;2023-05-19T04:08:38;3.80;;;1.73;;
30287;SDS011;17103;48.316;11.558;2023-05-19T04:11:04;3.78;;;1.83;;
30287;SDS011;17103;48.316;11.558;2023-05-19T04:13:33;5.38;;;1.95;;
30287;SDS011;17103;48.316;11.558;2023-05-19T04:15:59;6.85;;;1.73;;
30287;SDS011;17103;48.316;11.558;2023-05-19T04:18:25;4.25;;;1.90;;
30287;SDS011;17103;48.316;11.558;2023-05-19T04:20:51;4.22;;;2.10;;
30287;SDS011;17103;48.316;11.558;2023-05-19T04:23:17;3.65;;;1.73;;
30287;SDS011;17103;48.316;11.558;2023-05-19T04:25:42;3.90;;;1.63;;
30287;SDS011;17103;48.316;11.558;2023-05-19T04:28:08;4.05;;;1.77;;
30287;SDS011;17103;48.316;11.558;2023-05-19T04:30:34;11.25;;;1.92;;
30287;SDS011;17103;48.316;11.558;2023-05-19T04:33:01;4.55;;;1.67;;
30287;SDS011;17103;48.316;11.558;2023-05-19T04:35:27;5.45;;;2.53;;
30287;SDS011;17103;48.316;11.558;2023-05-19T04:37:52;6.28;;;2.47;;
30287;SDS011;17103;48.316;11.558;2023-05-19T04:40:18;8.38;;;2.78;;
30287;SDS011;17103;48.316;11.558;2023-05-19T04:42:46;5.80;;;2.30;;
30287;SDS011;17103;48.316;11.558;2023-05-19T04:45:13;3.63;;;2.38;;
30287;SDS011;17103;48.316;11.558;2023-05-19T04:47:39;5.05;;;2.53;;
30287;SDS011;17103;48.316;11.558;2023-05-19T04:50:06;9.50;;;3.38;;
30287;SDS011;17103;48.316;11.558;2023-05-19T04:52:35;5.28;;;2.35;;
30287;SDS011;17103;48.316;11.558;2023-05-19T04:55:01;6.45;;;2.42;;
30287;SDS011;17103;48.316;11.558;2023-05-19T04:57:28;6.07;;;2.22;;
30287;SDS011;17103;48.316;11.558;2023-05-19T04:59:54;7.88;;;3.10;;
30287;SDS011;17103;48.316;11.558;2023-05-19T05:02:24;7.18;;;2.40;;
30287;SDS011;17103;48.316;11.558;2023-05-19T05:04:53;5.13;;;2.22;;
30287;SDS011;17103;48.316;11.558;2023-05-19T05:07:20;6.28;;;2.40;;
30287;SDS011;17103;48.316;11.558;2023-05-19T05:09:47;5.93;;;2.83;;
30287;SDS011;17103;48.316;11.558;2023-05-19T05:12:13;6.35;;;3.40;;
30287;SDS011;17103;48.316;11.558;2023-05-19T05:14:43;5.88;;;2.80;;
30287;SDS011;17103;48.316;11.558;2023-05-19T05:17:11;8.93;;;2.85;;
30287;SDS011;17103;48.316;11.558;2023-05-19T05:19:38;7.63;;;2.95;;
30287;SDS011;17103;48.316;11.558;2023-05-19T05:22:04;7.30;;;2.85;;
30287;SDS011;17103;48.316;11.558;2023-05-19T05:24:30;6.57;;;2.75;;
30287;SDS011;17103;48.316;11.558;2023-05-19T05:26:57;7.78;;;2.63;;
30287;SDS011;17103;48.316;11.558;2023-05-19T05:29:23;7.03;;;3.05;;
30287;SDS011;17103;48.316;11.558;2023-05-19T05:31:49;5.78;;;3.03;;
30287;SDS011;17103;48.316;11.558;2023-05-19T05:34:15;6.68;;;3.80;;
30287;SDS011;17103;48.316;11.558;2023-05-19T05:36:41;6.32;;;2.47;;
30287;SDS011;17103;48.316;11.558;2023-05-19T05:39:07;7.68;;;2.42;;
30287;SDS011;17103;48.316;11.558;2023-05-19T05:41:32;5.32;;;3.20;;
30287;SDS011;17103;48.316;11.558;2023-05-19T05:44:01;11.55;;;3.13;;
30287;SDS011;17103;48.316;11.558;2023-05-19T05:46:27;5.30;;;2.95;;
30287;SDS011;17103;48.316;11.558;2023-05-19T05:48:53;5.55;;;2.85;;
30287;SDS011;17103;48.316;11.558;2023-05-19T05:51:22;7.22;;;3.50;;
30287;SDS011;17103;48.316;11.558;2023-05-19T05:53:52;5.20;;;3.17;;
30287;SDS011;17103;48.316;11.558;2023-05-19T05:56:19;7.38;;;3.22;;
30287;SDS011;17103;48.316;11.558;2023-05-19T05:58:46;6.35;;;3.08;;
30287;SDS011;17103;48.316;11.558;2023-05-19T06:01:13;9.98;;;3.72;;
30287;SDS011;17103;48.316;11.558;2023-05-19T06:03:41;6.38;;;3.15;;
30287;SDS011;17103;48.316;11.558;2023-05-19T06:06:10;7.45;;;3.65;;
30287;SDS011;17103;48.316;11.558;2023-05-19T06:08:37;8.10;;;3.95;;
30287;SDS011;17103;48.316;11.558;2023-05-19T06:11:03;8.43;;;3.38;;
30287;SDS011;17103;48.316;11.558;2023-05-19T06:13:35;8.75;;;3.40;;
30287;SDS011;17103;48.316;11.558;2023-05-19T06:16:02;4.53;;;3.55;;
30287;SDS011;17103;48.316;11.558;2023-05-19T06:18:29;6.40;;;3.72;;
30287;SDS011;17103;48.316;11.558;2023-05-19T06:20:55;5.75;;;3.58;;
30287;SDS011;17103;48.316;11.558;2023-05-19T06:23:21;9.23;;;4.00;;
30287;SDS011;17103;48.316;11.558;2023-05-19T06:25:47;7.47;;;3.50;;
30287;SDS011;17103;48.316;11.558;2023-05-19T06:28:13;8.65;;;3.50;;
30287;SDS011;17103;48.316;11.558;2023-05-19T06:30:39;5.32;;;3.70;;
30287;SDS011;17103;48.316;11.558;2023-05-19T06:33:04;5.80;;;3.15;;
30287;SDS011;17103;48.316;11.558;2023-05-19T06:35:30;5.75;;;3.28;;
30287;SDS011;17103;48.316;11.558;2023-05-19T06:37:56;7.70;;;3.63;;
30287;SDS011;17103;48.316;11.558;2023-05-19T06:40:22;6.53;;;3.75;;
30287;SDS011;17103;48.316;11.558;2023-05-19T06:42:49;5.90;;;3.33;;
30287;SDS011;17103;48.316;11.558;2023-05-19T06:45:14;5.72;;;3.03;;
30287;SDS011;17103;48.316;11.558;2023-05-19T06:47:40;5.15;;;3.35;;
30287;SDS011;17103;48.316;11.558;2023-05-19T06:50:07;6.35;;;3.58;;
30287;SDS011;17103;48.316;11.558;2023-05-19T06:52:33;5.65;;;3.63;;
30287;SDS011;17103;48.316;11.558;2023-05-19T06:54:59;9.20;;;3.92;;
30287;SDS011;17103;48.316;11.558;2023-05-19T06:57:25;9.95;;;3.80;;
30287;SDS011;17103;48.316;11.558;2023-05-19T06:59:54;10.40;;;3.30;;
30287;SDS011;17103;48.316;11.558;2023-05-19T07:02:21;7.10;;;2.90;;
30287;SDS011;17103;48.316;11.558;2023-05-19T07:04:46;5.63;;;3.33;;
30287;SDS011;17103;48.316;11.558;2023-05-19T07:07:12;7.18;;;3.15;;
30287;SDS011;17103;48.316;11.558;2023-05-19T07:09:38;5.45;;;3.47;;
30287;SDS011;17103;48.316;11.558;2023-05-19T07:12:04;5.85;;;3.40;;
30287;SDS011;17103;48.316;11.558;2023-05-19T07:14:30;8.93;;;4.50;;
30287;SDS011;17103;48.316;11.558;2023-05-19T07:16:55;6.32;;;3.88;;
30287;SDS011;17103;48.316;11.558;2023-05-19T07:19:21;5.25;;;3.22;;
30287;SDS011;17103;48.316;11.558;2023-05-19T07:21:48;9.27;;;3.90;;
30287;SDS011;17103;48.316;11.558;2023-05-19T07:24:13;5.38;;;3.60;;
30287;SDS011;17103;48.316;11.558;2023-05-19T07:26:39;5.57;;;3.75;;
30287;SDS011;17103;48.316;11.558;2023-05-19T07:29:06;5.88;;;3.70;;
30287;SDS011;17103;48.316;11.558;2023-05-19T07:31:32;7.07;;;3.22;;
30287;SDS011;17103;48.316;11.558;2023-05-19T07:33:58;6.20;;;3.28;;
30287;SDS011;17103;48.316;11.558;2023-05-19T07:36:24;7.05;;;3.30;;
30287;SDS011;17103;48.316;11.558;2023-05-19T07:38:49;5.03;;;3.03;;
30287;SDS011;17103;48.316;11.558;2023-05-19T07:41:15;4.80;;;2.92;;
30287;SDS011;17103;48.316;11.558;2023-05-19T07:43:41;6.30;;;3.08;;
30287;SDS011;17103;48.316;11.558;2023-05-19T07:46:07;7.35;;;3.45;;
30287;SDS011;17103;48.316;11.558;2023-05-19T07:48:33;6.80;;;3.13;;
30287;SDS011;17103;48.316;11.558;2023-05-19T07:50:58;5.65;;;3.05;;
30287;SDS011;17103;48.316;11.558;2023-05-19T07:53:24;5.72;;;3.42;;
30287;SDS011;17103;48.316;11.558;2023-05-19T07:55:50;10.23;;;4.18;;
30287;SDS011;17103;48.316;11.558;2023-05-19T07:58:15;6.13;;;3.97;;
30287;SDS011;17103;48.316;11.558;2023-05-19T08:00:41;7.38;;;3.40;;
30287;SDS011;17103;48.316;11.558;2023-05-19T08:03:07;5.22;;;3.10;;
30287;SDS011;17103;48.316;11.558;2023-05-19T08:05:43;4.70;;;3.00;;
30287;SDS011;17103;48.316;11.558;2023-05-19T08:08:09;5.55;;;3.75;;
30287;SDS011;17103;48.316;11.558;2023-05-19T08:10:35;5.43;;;3.45;;
30287;SDS011;17103;48.316;11.558;2023-05-19T08:13:01;8.05;;;4.38;;
30287;SDS011;17103;48.316;11.558;2023-05-19T08:15:27;7.13;;;3.38;;
30287;SDS011;17103;48.316;11.558;2023-05-19T08:17:52;4.45;;;3.20;;
30287;SDS011;17103;48.316;11.558;2023-05-19T08:20:18;5.28;;;3.00;;
30287;SDS011;17103;48.316;11.558;2023-05-19T08:22:44;3.97;;;2.50;;
30287;SDS011;17103;48.316;11.558;2023-05-19T08:25:10;4.05;;;2.75;;
30287;SDS011;17103;48.316;11.558;2023-05-19T08:27:35;3.83;;;2.45;;
30287;SDS011;17103;48.316;11.558;2023-05-19T08:30:01;4.20;;;3.03;;
30287;SDS011;17103;48.316;11.558;2023-05-19T08:32:27;4.57;;;2.42;;
30287;SDS011;17103;48.316;11.558;2023-05-19T08:34:52;3.55;;;2.55;;
30287;SDS011;17103;48.316;11.558;2023-05-19T08:37:18;4.32;;;2.80;;
30287;SDS011;17103;48.316;11.558;2023-05-19T08:39:44;3.70;;;2.50;;
30287;SDS011;17103;48.316;11.558;2023-05-19T08:42:09;3.72;;;1.92;;
30287;SDS011;17103;48.316;11.558;2023-05-19T08:44:36;4.82;;;2.58;;
30287;SDS011;17103;48.316;11.558;2023-05-19T08:47:04;4.82;;;2.88;;
30287;SDS011;17103;48.316;11.558;2023-05-19T08:49:32;4.80;;;2.90;;
30287;SDS011;17103;48.316;11.558;2023-05-19T08:52:02;4.05;;;3.13;;
30287;SDS011;17103;48.316;11.558;2023-05-19T08:54:42;4.75;;;2.95;;
30287;SDS011;17103;48.316;11.558;2023-05-19T08:57:35;7.70;;;3.03;;
30287;SDS011;17103;48.316;11.558;2023-05-19T09:00:03;3.92;;;2.72;;
30287;SDS011;17103;48.316;11.558;2023-05-19T09:02:33;4.68;;;2.42;;
30287;SDS011;17103;48.316;11.558;2023-05-19T09:05:02;3.30;;;2.72;;
30287;SDS011;17103;48.316;11.558;2023-05-19T09:07:30;2.88;;;2.40;;
30287;SDS011;17103;48.316;11.558;2023-05-19T09:09:59;4.72;;;2.75;;
30287;SDS011;17103;48.316;11.558;2023-05-19T09:12:25;11.52;;;2.72;;
30287;SDS011;17103;48.316;11.558;2023-05-19T09:14:51;6.57;;;2.70;;
30287;SDS011;17103;48.316;11.558;2023-05-19T09:17:17;4.97;;;2.90;;
30287;SDS011;17103;48.316;11.558;2023-05-19T09:19:45;6.05;;;2.35;;
30287;SDS011;17103;48.316;11.558;2023-05-19T09:22:15;4.65;;;2.50;;
30287;SDS011;17103;48.316;11.558;2023-05-19T09:24:43;4.47;;;2.63;;
30287;SDS011;17103;48.316;11.558;2023-05-19T09:27:08;5.93;;;2.88;;
30287;SDS011;17103;48.316;11.558;2023-05-19T09:29:38;3.13;;;2.72;;
30287;SDS011;17103;48.316;11.558;2023-05-19T09:32:04;6.38;;;2.67;;
30287;SDS011;17103;48.316;11.558;2023-05-19T09:34:30;3.67;;;2.78;;
30287;SDS011;17103;48.316;11.558;2023-05-19T09:36:56;4.30;;;2.60;;
30287;SDS011;17103;48.316;11.558;2023-05-19T09:39:24;3.33;;;2.53;;
30287;SDS011;17103;48.316;11.558;2023-05-19T09:41:50;3.90;;;2.80;;
30287;SDS011;17103;48.316;11.558;2023-05-19T09:44:24;4.07;;;2.60;;
30287;SDS011;17103;48.316;11.558;2023-05-19T09:46:54;4.05;;;2.83;;
30287;SDS011;17103;48.316;11.558;2023-05-19T09:49:21;3.30;;;2.63;;
30287;SDS011;17103;48.316;11.558;2023-05-19T09:51:48;3.78;;;2.80;;
30287;SDS011;17103;48.316;11.558;2023-05-19T09:54:21;3.80;;;3.08;;
30287;SDS011;17103;48.316;11.558;2023-05-19T09:56:58;3.83;;;2.53;;
30287;SDS011;17103;48.316;11.558;2023-05-19T09:59:25;5.25;;;3.08;;
30287;SDS011;17103;48.316;11.558;2023-05-19T10:01:53;5.88;;;2.53;;
30287;SDS011;17103;48.316;11.558;2023-05-19T10:04:21;3.22;;;2.88;;
30287;SDS011;17103;48.316;11.558;2023-05-19T10:06:50;3.65;;;2.42;;
30287;SDS011;17103;48.316;11.558;2023-05-19T10:09:21;4.13;;;2.63;;
30287;SDS011;17103;48.316;11.558;2023-05-19T10:11:51;4.57;;;2.72;;
30287;SDS011;17103;48.316;11.558;2023-05-19T10:14:25;4.22;;;2.60;;
30287;SDS011;17103;48.316;11.558;2023-05-19T10:16:53;3.88;;;2.55;;
30287;SDS011;17103;48.316;11.558;2023-05-19T10:19:21;2.78;;;1.92;;
30287;SDS011;17103;48.316;11.558;2023-05-19T10:21:53;4.78;;;2.47;;
30287;SDS011;17103;48.316;11.558;2023-05-19T10:24:19;3.08;;;2.30;;
30287;SDS011;17103;48.316;11.558;2023-05-19T10:26:55;5.35;;;2.83;;
30287;SDS011;17103;48.316;11.558;2023-05-19T10:29:27;4.00;;;2.65;;
30287;SDS011;17103;48.316;11.558;2023-05-19T10:31:55;2.95;;;2.47;;
30287;SDS011;17103;48.316;11.558;2023-05-19T10:34:46;4.90;;;2.72;;
30287;SDS011;17103;48.316;11.558;2023-05-19T10:37:28;3.83;;;3.20;;
30287;SDS011;17103;48.316;11.558;2023-05-19T10:43:37;3.92;;;2.50;;
30287;SDS011;17103;48.316;11.558;2023-05-19T10:46:12;3.60;;;2.75;;
30287;SDS011;17103;48.316;11.558;2023-05-19T10:48:38;4.03;;;3.03;;
30287;SDS011;17103;48.316;11.558;2023-05-19T10:51:09;3.33;;;2.10;;
30287;SDS011;17103;48.316;11.558;2023-05-19T10:53:39;3.30;;;2.78;;
30287;SDS011;17103;48.316;11.558;2023-05-19T10:56:10;5.40;;;3.08;;
30287;SDS011;17103;48.316;11.558;2023-05-19T10:58:51;3.55;;;2.85;;
30287;SDS011;17103;48.316;11.558;2023-05-19T11:01:19;3.05;;;2.53;;
30287;SDS011;17103;48.316;11.558;2023-05-19T11:03:52;4.68;;;2.88;;
30287;SDS011;17103;48.316;11.558;2023-05-19T11:08:50;3.50;;;3.17;;
30287;SDS011;17103;48.316;11.558;2023-05-19T11:11:20;6.32;;;3.05;;
30287;SDS011;17103;48.316;11.558;2023-05-19T11:13:49;4.05;;;3.30;;
30287;SDS011;17103;48.316;11.558;2023-05-19T11:16:34;5.28;;;2.95;;
30287;SDS011;17103;48.316;11.558;2023-05-19T11:18:59;2.53;;;2.30;;
30287;SDS011;17103;48.316;11.558;2023-05-19T11:24:38;3.97;;;2.97;;
30287;SDS011;17103;48.316;11.558;2023-05-19T11:29:58;4.07;;;2.65;;
30287;SDS011;17103;48.316;11.558;2023-05-19T11:32:35;3.83;;;2.90;;
30287;SDS011;17103;48.316;11.558;2023-05-19T11:35:06;4.90;;;3.15;;
30287;SDS011;17103;48.316;11.558;2023-05-19T11:37:32;6.78;;;3.10;;
30287;SDS011;17103;48.316;11.558;2023-05-19T11:40:05;3.00;;;2.40;;
30287;SDS011;17103;48.316;11.558;2023-05-19T11:42:31;5.93;;;3.00;;
30287;SDS011;17103;48.316;11.558;2023-05-19T11:44:58;4.30;;;2.85;;
30287;SDS011;17103;48.316;11.558;2023-05-19T11:47:24;5.13;;;2.78;;
30287;SDS011;17103;48.316;11.558;2023-05-19T11:49:52;4.85;;;2.67;;
30287;SDS011;17103;48.316;11.558;2023-05-19T11:52:25;4.82;;;3.20;;
30287;SDS011;17103;48.316;11.558;2023-05-19T11:54:55;6.57;;;2.90;;
30287;SDS011;17103;48.316;11.558;2023-05-19T11:57:25;2.97;;;2.47;;
30287;SDS011;17103;48.316;11.558;2023-05-19T11:59:51;8.07;;;3.08;;
30287;SDS011;17103;48.316;11.558;2023-05-19T12:04:45;9.63;;;4.28;;
30287;SDS011;17103;48.316;11.558;2023-05-19T12:07:12;5.40;;;3.15;;
30287;SDS011;17103;48.316;11.558;2023-05-19T12:09:43;4.40;;;3.03;;
30287;SDS011;17103;48.316;11.558;2023-05-19T12:12:12;3.85;;;3.15;;
30287;SDS011;17103;48.316;11.558;2023-05-19T12:14:38;4.43;;;3.38;;
30287;SDS011;17103;48.316;11.558;2023-05-19T12:17:11;8.57;;;3.40;;
30287;SDS011;17103;48.316;11.558;2023-05-19T12:19:38;2.95;;;2.70;;
30287;SDS011;17103;48.316;11.558;2023-05-19T12:24:36;5.82;;;3.22;;
30287;SDS011;17103;48.316;11.558;2023-05-19T12:27:09;4.03;;;3.28;;
30287;SDS011;17103;48.316;11.558;2023-05-19T12:29:38;4.45;;;3.42;;
30287;SDS011;17103;48.316;11.558;2023-05-19T12:32:06;3.67;;;2.78;;
30287;SDS011;17103;48.316;11.558;2023-05-19T12:34:34;3.72;;;2.72;;
30287;SDS011;17103;48.316;11.558;2023-05-19T12:37:01;4.57;;;3.55;;
30287;SDS011;17103;48.316;11.558;2023-05-19T12:39:27;5.43;;;4.07;;
30287;SDS011;17103;48.316;11.558;2023-05-19T12:41:59;4.57;;;3.60;;
30287;SDS011;17103;48.316;11.558;2023-05-19T12:44:38;7.28;;;4.15;;
30287;SDS011;17103;48.316;11.558;2023-05-19T12:47:07;4.47;;;3.53;;
30287;SDS011;17103;48.316;11.558;2023-05-19T12:49:33;4.15;;;3.53;;
30287;SDS011;17103;48.316;11.558;2023-05-19T12:52:02;5.32;;;3.67;;
30287;SDS011;17103;48.316;11.558;2023-05-19T12:54:32;6.15;;;4.45;;
30287;SDS011;17103;48.316;11.558;2023-05-19T12:56:58;6.05;;;4.00;;
30287;SDS011;17103;48.316;11.558;2023-05-19T12:59:24;5.43;;;4.35;;
30287;SDS011;17103;48.316;11.558;2023-05-19T13:01:54;4.28;;;3.88;;
30287;SDS011;17103;48.316;11.558;2023-05-19T13:04:23;5.03;;;4.00;;
30287;SDS011;17103;48.316;11.558;2023-05-19T13:06:51;3.88;;;3.45;;
30287;SDS011;17103;48.316;11.558;2023-05-19T13:09:17;5.10;;;4.38;;
30287;SDS011;17103;48.316;11.558;2023-05-19T13:11:44;5.85;;;4.43;;
30287;SDS011;17103;48.316;11.558;2023-05-19T13:14:15;5.63;;;4.68;;
30287;SDS011;17103;48.316;11.558;2023-05-19T13:16:43;5.03;;;4.22;;
30287;SDS011;17103;48.316;11.558;2023-05-19T13:19:13;6.40;;;4.53;;
30287;SDS011;17103;48.316;11.558;2023-05-19T13:21:39;4.68;;;4.20;;
30287;SDS011;17103;48.316;11.558;2023-05-19T13:24:05;7.63;;;4.13;;
30287;SDS011;17103;48.316;11.558;2023-05-19T13:26:31;4.95;;;3.85;;
30287;SDS011;17103;48.316;11.558;2023-05-19T13:28:57;10.23;;;9.35;;
30287;SDS011;17103;48.316;11.558;2023-05-19T13:31:23;7.38;;;6.70;;
30287;SDS011;17103;48.316;11.558;2023-05-19T13:33:48;8.27;;;5.60;;
30287;SDS011;17103;48.316;11.558;2023-05-19T13:36:14;6.03;;;4.60;;
30287;SDS011;17103;48.316;11.558;2023-05-19T13:38:40;7.88;;;6.22;;
30287;SDS011;17103;48.316;11.558;2023-05-19T13:41:06;6.10;;;4.80;;
30287;SDS011;17103;48.316;11.558;2023-05-19T13:43:31;7.38;;;4.00;;
30287;SDS011;17103;48.316;11.558;2023-05-19T13:45:57;5.85;;;4.28;;
30287;SDS011;17103;48.316;11.558;2023-05-19T13:48:23;6.72;;;4.78;;
30287;SDS011;17103;48.316;11.558;2023-05-19T13:50:48;5.68;;;3.72;;
30287;SDS011;17103;48.316;11.558;2023-05-19T13:53:16;5.60;;;4.22;;
30287;SDS011;17103;48.316;11.558;2023-05-19T13:55:42;6.20;;;3.55;;
30287;SDS011;17103;48.316;11.558;2023-05-19T13:58:07;4.97;;;3.53;;
30287;SDS011;17103;48.316;11.558;2023-05-19T14:00:34;6.10;;;3.45;;
30287;SDS011;17103;48.316;11.558;2023-05-19T14:03:00;5.93;;;3.85;;
30287;SDS011;17103;48.316;11.558;2023-05-19T14:05:26;4.78;;;3.38;;
30287;SDS011;17103;48.316;11.558;2023-05-19T14:07:53;4.50;;;3.33;;
30287;SDS011;17103;48.316;11.558;2023-05-19T14:10:19;4.82;;;3.17;;
30287;SDS011;17103;48.316;11.558;2023-05-19T14:12:45;3.53;;;2.90;;
30287;SDS011;17103;48.316;11.558;2023-05-19T14:15:10;2.83;;;2.28;;
30287;SDS011;17103;48.316;11.558;2023-05-19T14:17:36;3.42;;;2.67;;
30287;SDS011;17103;48.316;11.558;2023-05-19T14:20:02;4.45;;;2.97;;
30287;SDS011;17103;48.316;11.558;2023-05-19T14:22:28;6.38;;;4.20;;
30287;SDS011;17103;48.316;11.558;2023-05-19T14:24:54;3.88;;;2.53;;
30287;SDS011;17103;48.316;11.558;2023-05-19T14:27:19;4.05;;;2.70;;
30287;SDS011;17103;48.316;11.558;2023-05-19T14:29:45;4.88;;;2.38;;
30287;SDS011;17103;48.316;11.558;2023-05-19T14:32:12;4.18;;;2.63;;
30287;SDS011;17103;48.316;11.558;2023-05-19T14:34:38;2.60;;;2.08;;
30287;SDS011;17103;48.316;11.558;2023-05-19T14:37:04;2.40;;;2.13;;
30287;SDS011;17103;48.316;11.558;2023-05-19T14:39:29;3.75;;;2.05;;
30287;SDS011;17103;48.316;11.558;2023-05-19T14:41:56;3.40;;;2.50;;
30287;SDS011;17103;48.316;11.558;2023-05-19T14:44:23;3.20;;;2.90;;
30287;SDS011;17103;48.316;11.558;2023-05-19T14:46:54;4.70;;;2.53;;
30287;SDS011;17103;48.316;11.558;2023-05-19T14:49:19;3.88;;;2.17;;
30287;SDS011;17103;48.316;11.558;2023-05-19T14:51:45;2.60;;;2.15;;
30287;SDS011;17103;48.316;11.558;2023-05-19T14:54:10;3.28;;;2.47;;
30287;SDS011;17103;48.316;11.558;2023-05-19T14:56:36;2.40;;;1.88;;
30287;SDS011;17103;48.316;11.558;2023-05-19T14:59:03;4.13;;;2.85;;
30287;SDS011;17103;48.316;11.558;2023-05-19T15:01:29;4.22;;;2.80;;
30287;SDS011;17103;48.316;11.558;2023-05-19T15:03:55;3.45;;;2.15;;
30287;SDS011;17103;48.316;11.558;2023-05-19T15:06:20;3.85;;;2.58;;
30287;SDS011;17103;48.316;11.558;2023-05-19T15:08:46;5.63;;;2.17;;
30287;SDS011;17103;48.316;11.558;2023-05-19T15:11:12;5.45;;;2.20;;